Bilibino, Russia
Current Conditions -  °F | °C
As of 12:56 AM on Friday 31 Oct 2014 (Local Time) from PAGM Reporting Station
Overcast Overcast  
Wind Chill: 23°   Ceiling: 600
Heat Index: 28°   Visibility: 0.75mi
Dew Point: 25°   Wind: 5mph
Humidity: 86%   Direction: 70°ENE
Pressure: 30.02"   Gusts: NA
Location:  68.06°N, 166.44°E
Report Text: PAGM 301256Z AUTO 07004KT 3/4SM OVC006 M02/M04 A3002 RMK AO1
Loading
Personal Weather Stations






























Interactive Weather Map
Tropical Storm Tracking
New forecast layout! Learn more

10-Day Weather Forecast

Advertisements
Track Severe Weather on mobile